createdAt,value
2022-09-28T00:09:05.178Z,7.63
2022-09-28T00:12:43.195Z,4.88
2022-09-28T00:36:04.358Z,1.52
2022-09-28T00:39:16.153Z,3.65
2022-09-28T00:42:40.489Z,3.83
2022-09-28T02:09:33.723Z,2.40
2022-09-28T02:13:30.830Z,3.30
2022-09-28T02:20:53.023Z,8.40
2022-09-28T02:32:43.244Z,5.80
2022-09-28T02:39:46.598Z,6.50
2022-09-28T02:50:31.463Z,5.10
2022-09-28T03:03:51.224Z,5.63
2022-09-28T03:07:42.591Z,5.70
2022-09-28T03:11:35.716Z,9.02
2022-09-28T03:14:28.321Z,4.47
2022-09-28T03:21:22.677Z,7.30
2022-09-28T03:28:41.485Z,8.57
2022-09-28T03:31:50.194Z,12.25
2022-09-28T03:34:59.132Z,4.82
2022-09-28T03:37:43.497Z,4.80
2022-09-28T03:40:39.840Z,4.25
2022-09-28T03:47:53.117Z,5.53
2022-09-28T03:50:47.921Z,2.67
2022-09-28T03:54:37.464Z,2.97
2022-09-28T03:59:02.189Z,9.43
2022-09-28T04:13:37.742Z,4.38
2022-09-28T04:16:40.713Z,4.38
2022-09-28T04:20:13.158Z,2.53
2022-09-28T05:23:17.782Z,6.45
2022-09-28T05:26:25.888Z,5.90
2022-09-28T05:29:57.708Z,3.13
2022-09-28T05:33:54.982Z,5.22
2022-09-28T05:44:59.741Z,6.47
2022-09-28T05:48:01.712Z,4.63
2022-09-28T05:55:27.642Z,5.00
2022-09-28T05:58:38.357Z,4.47
2022-09-28T06:24:54.501Z,6.90
2022-09-28T09:20:11.280Z,4.28
2022-09-28T09:42:10.134Z,3.33
2022-09-28T09:50:40.337Z,3.03
2022-09-28T11:07:17.394Z,6.28
2022-09-28T11:10:56.565Z,3.22
2022-09-28T11:20:45.579Z,5.68
2022-09-28T11:23:11.956Z,5.05
2022-09-28T11:27:02.665Z,4.53
2022-09-28T12:11:43.574Z,4.30
2022-09-28T12:20:24.339Z,4.63
2022-09-28T12:24:35.648Z,1.08
2022-09-28T12:28:47.310Z,1.85
2022-09-28T12:40:32.313Z,2.03
2022-09-28T12:47:44.893Z,2.80
2022-09-28T12:51:31.908Z,2.28
2022-09-28T13:04:41.732Z,0.95
2022-09-28T13:22:11.305Z,3.45
2022-09-28T13:49:37.541Z,2.63
2022-09-28T13:59:12.152Z,1.25
2022-09-28T14:12:33.093Z,9.73
2022-09-28T14:15:01.263Z,3.15
2022-09-28T14:17:28.316Z,1.27
2022-09-28T14:20:17.670Z,1.92
2022-09-28T14:23:18.847Z,1.70
2022-09-28T14:26:20.742Z,1.48
2022-09-28T14:29:10.766Z,4.07
2022-09-28T14:32:09.601Z,1.08
2022-09-28T14:34:55.006Z,1.38
2022-09-28T14:37:52.292Z,3.90
2022-09-28T14:41:12.562Z,3.90
2022-09-28T14:43:46.133Z,1.08
2022-09-28T14:46:19.732Z,0.80
2022-09-28T14:49:10.191Z,1.35
2022-09-28T14:52:02.839Z,2.42
2022-09-28T14:54:52.497Z,1.45
2022-09-28T14:57:25.271Z,1.35
2022-09-28T14:59:52.420Z,1.50
2022-09-28T15:02:32.266Z,0.80
2022-09-28T15:05:18.701Z,0.45
2022-09-28T15:07:52.264Z,1.48
2022-09-28T15:10:36.699Z,0.60
2022-09-28T15:13:32.446Z,2.17
2022-09-28T15:16:10.087Z,1.00
2022-09-28T15:19:51.709Z,1.60
2022-09-28T15:32:04.920Z,1.80
2022-09-28T15:34:52.812Z,2.10
2022-09-28T15:49:39.076Z,1.85
2022-09-28T15:52:08.241Z,4.53
2022-09-28T15:54:44.372Z,3.85
2022-09-28T15:57:36.853Z,3.17
2022-09-28T16:00:28.271Z,3.63
2022-09-28T16:17:07.267Z,2.75
2022-09-28T16:19:46.997Z,2.15
2022-09-28T16:23:06.069Z,2.90
2022-09-28T16:25:37.502Z,6.50
2022-09-28T16:28:06.395Z,2.90
2022-09-28T16:30:35.468Z,2.88
2022-09-28T16:33:31.024Z,3.30
2022-09-28T16:49:19.029Z,3.80
2022-09-28T17:02:04.551Z,5.68
2022-09-28T17:04:36.253Z,5.38
2022-09-28T17:07:03.510Z,7.57
2022-09-28T17:09:31.675Z,7.50
2022-09-28T17:11:58.780Z,4.93
2022-09-28T17:14:26.048Z,6.93
2022-09-28T17:17:08.194Z,6.80
2022-09-28T18:09:25.225Z,8.25
2022-09-28T18:43:10.774Z,8.13
2022-09-28T18:51:29.673Z,11.18
2022-09-28T19:01:28.964Z,8.57
2022-09-28T19:04:01.870Z,8.70
2022-09-28T19:06:32.961Z,9.40
2022-09-28T19:17:10.573Z,8.25
2022-09-28T20:16:51.865Z,8.38
2022-09-28T20:20:10.295Z,9.68
2022-09-28T20:22:38.261Z,9.98
2022-09-28T20:25:06.309Z,7.80
2022-09-28T20:27:33.417Z,7.82
2022-09-28T20:30:00.657Z,7.68
2022-09-28T20:32:31.646Z,10.27
2022-09-28T20:34:58.765Z,8.80
2022-09-28T20:49:20.040Z,8.15
2022-09-28T20:51:47.564Z,7.90
2022-09-28T20:54:24.795Z,7.72
2022-09-28T20:57:17.422Z,8.02
2022-09-28T21:00:04.606Z,9.77
2022-09-28T21:03:11.491Z,14.80
2022-09-28T21:05:41.283Z,8.70
2022-09-28T21:17:58.442Z,10.52
2022-09-28T21:20:30.836Z,9.52
2022-09-28T21:22:57.890Z,8.23
2022-09-28T21:25:24.914Z,9.38
2022-09-28T21:27:52.994Z,7.35
2022-09-28T21:30:20.138Z,8.27
2022-09-28T21:32:47.152Z,8.55
2022-09-28T21:35:14.340Z,7.68
2022-09-28T21:37:41.442Z,10.70
2022-09-28T21:40:10.609Z,7.80
2022-09-28T21:42:37.726Z,8.00
2022-09-28T21:45:05.459Z,9.63
2022-09-28T21:47:32.453Z,7.25
2022-09-28T21:49:59.400Z,9.05
2022-09-28T21:52:26.714Z,7.45
2022-09-28T21:54:53.765Z,8.75
2022-09-28T21:57:20.936Z,8.13
2022-09-28T21:59:51.033Z,8.02
2022-09-28T22:02:18.818Z,8.95
2022-09-28T22:04:46.060Z,7.63
2022-09-28T22:07:15.023Z,6.80
2022-09-28T22:09:42.173Z,7.70
2022-09-28T22:12:09.552Z,9.75
2022-09-28T22:14:36.586Z,8.90
2022-09-28T22:17:03.699Z,7.85
2022-09-28T22:19:30.811Z,8.25
2022-09-28T22:36:18.584Z,10.57
2022-09-28T22:49:55.578Z,17.48
2022-09-28T22:52:23.154Z,11.70
2022-09-28T22:54:53.912Z,14.15
2022-09-28T22:57:21.797Z,12.50
2022-09-28T22:59:48.977Z,11.23
2022-09-28T23:02:16.095Z,12.68
2022-09-28T23:04:43.139Z,12.82
2022-09-28T23:07:10.552Z,12.95
2022-09-28T23:09:37.661Z,11.70
2022-09-28T23:12:04.748Z,12.98
2022-09-28T23:14:38.861Z,12.27
2022-09-28T23:18:03.458Z,14.30
2022-09-28T23:26:21.043Z,15.30
2022-09-28T23:34:43.852Z,13.93
2022-09-28T23:37:11.371Z,13.70
2022-09-28T23:39:38.419Z,10.57
2022-09-28T23:42:05.692Z,11.20
2022-09-28T23:44:57.631Z,11.20
2022-09-28T23:47:50.140Z,11.73
2022-09-28T23:50:17.554Z,9.57
2022-09-28T23:52:47.676Z,14.10
2022-09-28T23:55:14.807Z,10.15
2022-09-28T23:57:44.092Z,11.55
